createdAt,value
2023-02-09T00:01:50.463Z,-3.28
2023-02-09T00:04:18.786Z,-3.21
2023-02-09T00:06:46.634Z,-3.66
2023-02-09T00:09:14.920Z,-3.63
2023-02-09T00:12:01.712Z,-3.53
2023-02-09T00:14:29.731Z,-3.43
2023-02-09T00:16:57.943Z,-3.04
2023-02-09T00:19:25.833Z,-3.34
2023-02-09T00:21:53.929Z,-3.17
2023-02-09T00:24:22.117Z,-2.89
2023-02-09T00:26:49.973Z,-2.83
2023-02-09T00:29:22.521Z,-2.96
2023-02-09T00:31:52.068Z,-2.97
2023-02-09T00:34:20.062Z,-3.04
2023-02-09T00:36:48.913Z,-3.59
2023-02-09T00:39:17.334Z,-2.92
2023-02-09T00:42:03.951Z,-2.68
2023-02-09T00:44:36.536Z,-2.61
2023-02-09T00:47:05.292Z,-2.62
2023-02-09T00:49:33.912Z,-2.54
2023-02-09T00:52:01.742Z,-2.40
2023-02-09T00:54:29.731Z,-2.29
2023-02-09T00:57:05.315Z,-2.43
2023-02-09T00:59:34.953Z,-2.60
2023-02-09T01:02:03.855Z,-2.48
2023-02-09T01:04:31.787Z,-2.99
2023-02-09T01:06:59.674Z,-2.58
2023-02-09T01:09:27.986Z,-3.13
2023-02-09T01:11:55.830Z,-3.37
2023-02-09T01:14:24.405Z,-3.35
2023-02-09T01:16:52.753Z,-3.12
2023-02-09T01:19:21.050Z,-3.08
2023-02-09T01:21:49.318Z,-2.79
2023-02-09T01:24:17.558Z,-4.00
2023-02-09T01:26:45.533Z,-3.51
2023-02-09T01:29:15.527Z,-3.59
2023-02-09T01:31:44.290Z,-3.40
2023-02-09T01:34:14.879Z,-3.05
2023-02-09T01:36:43.687Z,-3.69
2023-02-09T01:39:13.029Z,-3.07
2023-02-09T01:41:41.804Z,-2.97
2023-02-09T01:44:16.765Z,-3.53
2023-02-09T01:46:46.619Z,-4.35
2023-02-09T01:49:20.447Z,-3.88
2023-02-09T01:51:58.619Z,-3.73
2023-02-09T01:54:34.600Z,-3.73
2023-02-09T01:57:06.510Z,-3.66
2023-02-09T01:59:37.275Z,-4.26
2023-02-09T02:02:06.524Z,-4.94
2023-02-09T02:04:35.399Z,-4.82
2023-02-09T02:07:12.893Z,-4.39
2023-02-09T02:09:41.060Z,-4.28
2023-02-09T02:12:10.209Z,-4.00
2023-02-09T02:14:39.638Z,-4.01
2023-02-09T02:17:31.896Z,-4.05
2023-02-09T02:20:21.195Z,-4.01
2023-02-09T02:23:09.910Z,-4.54
2023-02-09T02:25:50.186Z,-4.23
2023-02-09T02:28:46.116Z,-4.42
2023-02-09T02:31:33.140Z,-4.85
2023-02-09T02:34:22.862Z,-5.02
2023-02-09T02:37:28.266Z,-5.19
2023-02-09T02:40:16.624Z,-4.92
2023-02-09T02:42:53.838Z,-5.22
2023-02-09T02:45:33.656Z,-5.01
2023-02-09T02:48:46.227Z,-5.29
2023-02-09T02:51:20.351Z,-5.10
2023-02-09T02:53:53.442Z,-5.16
2023-02-09T02:56:26.042Z,-5.44
2023-02-09T02:58:57.453Z,-5.22
2023-02-09T03:01:27.994Z,-5.26
2023-02-09T03:03:56.650Z,-5.17
2023-02-09T03:06:24.504Z,-5.60
2023-02-09T03:08:57.170Z,-5.68
2023-02-09T03:11:29.929Z,-6.44
2023-02-09T03:14:38.400Z,-5.58
2023-02-09T03:17:06.644Z,-5.00
2023-02-09T03:19:41.654Z,-5.75
2023-02-09T03:22:19.015Z,-5.38
2023-02-09T03:24:55.968Z,-4.86
2023-02-09T03:27:40.959Z,-5.03
2023-02-09T03:30:11.486Z,-5.19
2023-02-09T03:32:40.712Z,-5.28
2023-02-09T03:35:11.942Z,-6.20
2023-02-09T03:37:40.253Z,-5.94
2023-02-09T03:40:09.285Z,-6.07
2023-02-09T03:42:37.191Z,-5.91
2023-02-09T03:45:08.208Z,-6.13
2023-02-09T03:47:36.096Z,-5.30
2023-02-09T03:50:06.976Z,-5.57
2023-02-09T03:52:35.184Z,-5.41
2023-02-09T03:55:03.525Z,-5.21
2023-02-09T03:57:31.371Z,-5.09
2023-02-09T04:00:01.420Z,-5.39
2023-02-09T04:02:39.622Z,-5.39
2023-02-09T04:05:08.111Z,-5.49
2023-02-09T04:07:36.022Z,-5.54
2023-02-09T04:10:04.576Z,-6.21
2023-02-09T04:12:32.904Z,-5.41
2023-02-09T04:15:00.722Z,-5.41
2023-02-09T04:17:28.875Z,-5.33
2023-02-09T04:19:57.118Z,-6.07
2023-02-09T04:22:25.018Z,-5.55
2023-02-09T04:24:52.886Z,-5.45
2023-02-09T04:27:21.166Z,-5.82
2023-02-09T04:29:49.075Z,-5.76
2023-02-09T04:32:16.904Z,-5.69
2023-02-09T04:34:45.183Z,-5.69
2023-02-09T04:37:13.061Z,-5.76
2023-02-09T04:39:41.008Z,-5.67
2023-02-09T04:42:09.295Z,-5.78
2023-02-09T04:44:37.180Z,-5.67
2023-02-09T04:47:05.105Z,-5.65
2023-02-09T04:49:33.257Z,-6.04
2023-02-09T04:52:01.069Z,-6.03
2023-02-09T04:54:29.095Z,-6.12
2023-02-09T04:57:15.853Z,-5.92
2023-02-09T04:59:45.155Z,-5.80
2023-02-09T05:02:13.610Z,-6.06
2023-02-09T05:04:41.455Z,-5.38
2023-02-09T05:07:09.307Z,-5.32
2023-02-09T05:09:37.503Z,-5.43
2023-02-09T05:12:05.514Z,-5.48
2023-02-09T05:14:33.426Z,-5.80
2023-02-09T05:17:01.910Z,-6.40
2023-02-09T05:19:29.929Z,-6.63
2023-02-09T05:21:57.954Z,-5.95
2023-02-09T05:24:26.232Z,-5.82
2023-02-09T05:26:54.131Z,-5.84
2023-02-09T05:29:22.316Z,-6.08
2023-02-09T05:31:50.634Z,-5.96
2023-02-09T05:34:18.591Z,-6.02
2023-02-09T05:36:47.938Z,-6.14
2023-02-09T05:39:16.266Z,-7.20
2023-02-09T05:42:02.506Z,-6.43
2023-02-09T05:44:30.729Z,-6.24
2023-02-09T05:46:58.640Z,-6.26
2023-02-09T05:49:26.743Z,-6.49
2023-02-09T05:51:55.072Z,-6.89
2023-02-09T05:54:23.078Z,-6.41
2023-02-09T05:56:51.038Z,-6.16
2023-02-09T05:59:19.663Z,-6.38
2023-02-09T06:01:47.508Z,-6.40
2023-02-09T06:04:16.162Z,-6.04
2023-02-09T06:06:46.375Z,-5.87
2023-02-09T06:09:14.287Z,-5.90
2023-02-09T06:11:42.537Z,-6.27
2023-02-09T06:14:10.810Z,-5.86
2023-02-09T06:16:38.674Z,-5.85
2023-02-09T06:19:08.030Z,-6.71
2023-02-09T06:21:35.971Z,-6.62
2023-02-09T06:24:03.983Z,-6.26
2023-02-09T06:26:32.213Z,-5.93
2023-02-09T06:29:00.101Z,-5.42
2023-02-09T06:31:28.167Z,-5.31
2023-02-09T06:33:56.554Z,-5.18
2023-02-09T06:36:24.493Z,-5.18
2023-02-09T06:38:52.379Z,-5.24
2023-02-09T06:41:20.621Z,-5.04
2023-02-09T06:43:48.566Z,-5.07
2023-02-09T06:46:17.004Z,-4.99
2023-02-09T06:48:45.316Z,-4.35
2023-02-09T06:51:15.522Z,-4.49
2023-02-09T06:53:44.068Z,-4.02
2023-02-09T06:56:13.318Z,-3.57
2023-02-09T06:58:41.830Z,-3.25
2023-02-09T07:01:12.164Z,-2.91
2023-02-09T07:03:40.642Z,-1.84
2023-02-09T07:06:11.246Z,-1.40
2023-02-09T07:08:39.265Z,-1.36
2023-02-09T07:11:10.148Z,-0.71
2023-02-09T07:13:38.400Z,-0.98
2023-02-09T07:16:08.976Z,-0.78
2023-02-09T07:18:37.988Z,-1.10
2023-02-09T07:21:08.932Z,-0.58
2023-02-09T07:23:37.976Z,-0.74
2023-02-09T07:26:08.525Z,-1.09
2023-02-09T07:28:37.062Z,0.09
2023-02-09T07:31:07.632Z,0.41
2023-02-09T07:33:36.371Z,0.42
2023-02-09T07:36:06.157Z,0.46
2023-02-09T07:38:35.016Z,0.39
2023-02-09T07:41:04.953Z,1.76
2023-02-09T07:43:33.808Z,1.20
2023-02-09T07:46:07.051Z,1.48
2023-02-09T07:48:35.576Z,1.93
2023-02-09T07:51:04.362Z,2.35
2023-02-09T07:53:33.043Z,3.08
2023-02-09T07:56:00.958Z,2.98
2023-02-09T07:58:29.498Z,2.63
2023-02-09T08:01:06.111Z,2.56
2023-02-09T08:03:38.482Z,1.96
2023-02-09T08:06:41.575Z,1.83
2023-02-09T08:09:12.965Z,1.63
2023-02-09T08:11:50.152Z,2.06
2023-02-09T08:14:31.603Z,2.06
2023-02-09T08:17:21.668Z,1.54
2023-02-09T08:20:01.505Z,1.55
2023-02-09T08:22:33.416Z,1.93
2023-02-09T08:25:03.617Z,2.49
2023-02-09T08:27:31.613Z,2.79
2023-02-09T08:30:00.070Z,3.28
2023-02-09T08:32:28.353Z,3.65
2023-02-09T08:34:56.294Z,4.40
2023-02-09T08:37:24.144Z,4.35
2023-02-09T08:39:53.460Z,4.79
2023-02-09T08:42:21.372Z,4.37
2023-02-09T08:44:49.311Z,5.85
2023-02-09T08:47:17.631Z,5.74
2023-02-09T08:49:45.511Z,5.93
2023-02-09T08:52:13.508Z,6.13
2023-02-09T08:54:41.753Z,6.36
2023-02-09T08:57:09.791Z,7.36
2023-02-09T08:59:38.417Z,8.07
2023-02-09T09:02:06.876Z,8.21
2023-02-09T09:04:34.774Z,8.76
2023-02-09T09:07:02.709Z,8.78
2023-02-09T09:09:31.174Z,9.76
2023-02-09T09:11:59.244Z,10.64
2023-02-09T09:14:27.456Z,10.79
2023-02-09T09:17:00.764Z,10.70
2023-02-09T09:19:29.477Z,10.57
2023-02-09T09:21:58.759Z,11.57
2023-02-09T09:24:28.499Z,10.39
2023-02-09T09:26:57.103Z,12.28
2023-02-09T09:29:25.645Z,12.84
2023-02-09T09:31:53.573Z,12.15
2023-02-09T09:34:23.232Z,10.99
2023-02-09T09:36:51.478Z,10.98
2023-02-09T09:39:20.688Z,10.75
2023-02-09T09:41:49.501Z,11.14
2023-02-09T09:44:25.116Z,10.55
2023-02-09T09:46:53.825Z,10.85
2023-02-09T09:49:27.855Z,10.81
2023-02-09T09:52:27.239Z,11.60
2023-02-09T09:54:55.578Z,12.26
2023-02-09T09:57:28.701Z,12.50
2023-02-09T09:59:57.666Z,13.76
2023-02-09T10:02:33.823Z,13.44
2023-02-09T10:05:13.578Z,12.28
2023-02-09T10:07:43.904Z,12.88
2023-02-09T10:10:57.488Z,14.08
2023-02-09T10:13:28.148Z,14.52
2023-02-09T10:15:57.550Z,15.06
2023-02-09T10:18:25.722Z,13.63
2023-02-09T10:20:57.039Z,13.90
2023-02-09T10:23:41.062Z,14.11
2023-02-09T10:26:10.546Z,13.58
2023-02-09T10:28:41.892Z,13.22
2023-02-09T10:31:27.117Z,12.77
2023-02-09T10:34:01.572Z,14.21
2023-02-09T10:36:35.966Z,15.49
2023-02-09T10:39:18.074Z,11.00
2023-02-09T10:41:51.611Z,12.96
2023-02-09T10:44:30.913Z,12.67
2023-02-09T10:47:29.589Z,11.66
2023-02-09T10:50:15.469Z,12.25
2023-02-09T10:53:03.380Z,11.08
2023-02-09T10:55:42.804Z,12.67
2023-02-09T10:58:10.904Z,12.87
2023-02-09T11:00:50.670Z,12.75
2023-02-09T11:03:22.541Z,13.31
2023-02-09T11:06:08.436Z,13.05
2023-02-09T11:08:48.545Z,13.15
2023-02-09T11:11:40.332Z,13.27
2023-02-09T11:14:17.000Z,13.78
2023-02-09T11:17:06.586Z,13.82
2023-02-09T11:19:57.631Z,14.01
2023-02-09T11:22:44.625Z,12.52
2023-02-09T11:25:28.290Z,13.91
2023-02-09T11:28:29.126Z,12.96
2023-02-09T11:31:22.946Z,14.38
2023-02-09T11:33:57.037Z,15.19
2023-02-09T11:36:27.929Z,13.98
2023-02-09T11:39:02.928Z,13.82
2023-02-09T11:41:54.712Z,13.83
2023-02-09T11:44:37.859Z,14.68
2023-02-09T11:47:08.610Z,13.65
2023-02-09T11:49:49.198Z,14.93
2023-02-09T11:52:23.999Z,14.04
2023-02-09T11:54:55.046Z,13.45
2023-02-09T11:57:46.704Z,12.19
2023-02-09T12:00:21.709Z,12.42
2023-02-09T12:03:00.731Z,12.88
2023-02-09T12:05:29.223Z,13.60
2023-02-09T12:08:24.443Z,13.34
2023-02-09T12:11:14.964Z,11.48
2023-02-09T12:14:21.326Z,10.28
2023-02-09T12:16:58.627Z,11.07
2023-02-09T12:19:34.297Z,10.66
2023-02-09T12:22:33.679Z,10.09
2023-02-09T12:25:32.153Z,9.56
2023-02-09T12:28:09.870Z,8.30
2023-02-09T12:30:41.050Z,6.96
2023-02-09T12:33:24.740Z,7.74
2023-02-09T12:36:16.246Z,7.05
2023-02-09T12:38:57.043Z,6.91
2023-02-09T12:41:34.879Z,7.01
2023-02-09T12:44:12.190Z,6.41
2023-02-09T12:46:48.009Z,6.67
2023-02-09T12:49:20.201Z,6.36
2023-02-09T12:51:51.356Z,6.94
2023-02-09T12:54:51.334Z,6.93
2023-02-09T12:57:19.514Z,7.01
2023-02-09T12:59:51.143Z,6.26
2023-02-09T13:02:49.963Z,6.38
2023-02-09T13:05:37.417Z,6.06
2023-02-09T13:08:11.555Z,6.18
2023-02-09T13:10:45.059Z,6.87
2023-02-09T13:13:13.261Z,6.05
2023-02-09T13:16:24.801Z,5.77
2023-02-09T13:19:05.123Z,4.96
2023-02-09T13:21:39.942Z,6.02
2023-02-09T13:24:09.370Z,5.46
2023-02-09T13:26:50.136Z,5.29
2023-02-09T13:29:22.323Z,5.27
2023-02-09T13:32:15.378Z,5.42
2023-02-09T13:35:23.804Z,6.01
2023-02-09T13:37:58.528Z,6.07
2023-02-09T13:40:34.875Z,5.11
2023-02-09T13:43:17.486Z,5.59
2023-02-09T13:45:49.235Z,5.52
2023-02-09T13:48:30.713Z,5.59
2023-02-09T13:51:01.810Z,5.58
2023-02-09T13:53:32.016Z,5.74
2023-02-09T13:56:00.950Z,5.47
2023-02-09T13:58:32.932Z,5.92
2023-02-09T14:01:06.124Z,5.62
2023-02-09T14:03:58.313Z,5.98
2023-02-09T14:06:38.878Z,5.54
2023-02-09T14:09:14.127Z,5.50
2023-02-09T14:11:44.294Z,5.38
2023-02-09T14:14:19.582Z,5.02
2023-02-09T14:16:53.789Z,5.02
2023-02-09T14:19:35.843Z,4.86
2023-02-09T14:22:05.868Z,3.73
2023-02-09T14:24:44.482Z,4.96
2023-02-09T14:27:23.447Z,4.69
2023-02-09T14:29:51.831Z,4.58
2023-02-09T14:32:33.344Z,4.77
2023-02-09T14:35:20.071Z,4.48
2023-02-09T14:37:51.883Z,4.47
2023-02-09T14:40:34.426Z,4.64
2023-02-09T14:43:11.505Z,4.21
2023-02-09T14:45:48.248Z,3.81
2023-02-09T14:48:17.726Z,3.97
2023-02-09T14:50:47.256Z,4.04
2023-02-09T14:53:16.142Z,4.28
2023-02-09T14:55:44.903Z,3.87
2023-02-09T14:58:18.399Z,4.02
2023-02-09T15:00:46.694Z,3.69
2023-02-09T15:03:15.049Z,4.02
2023-02-09T15:05:43.545Z,4.12
2023-02-09T15:08:15.372Z,3.93
2023-02-09T15:10:49.498Z,3.63
2023-02-09T15:13:17.596Z,4.08
2023-02-09T15:15:46.779Z,3.70
2023-02-09T15:18:20.589Z,3.73
2023-02-09T15:20:49.230Z,3.31
2023-02-09T15:23:18.039Z,2.98
2023-02-09T15:25:46.285Z,3.09
2023-02-09T15:28:28.872Z,3.51
2023-02-09T15:30:58.788Z,3.31
2023-02-09T15:33:29.187Z,2.76
2023-02-09T15:36:00.886Z,3.11
2023-02-09T15:38:29.645Z,2.79
2023-02-09T15:41:16.381Z,2.94
2023-02-09T15:44:03.099Z,2.78
2023-02-09T15:46:53.076Z,2.54
2023-02-09T15:49:21.989Z,2.40
2023-02-09T15:51:50.025Z,2.20
2023-02-09T15:54:22.437Z,1.94
2023-02-09T15:56:50.789Z,1.96
2023-02-09T15:59:22.947Z,2.15
2023-02-09T16:01:51.713Z,1.59
2023-02-09T16:04:20.239Z,1.27
2023-02-09T16:06:53.103Z,1.08
2023-02-09T16:09:30.957Z,1.02
2023-02-09T16:11:58.930Z,0.69
2023-02-09T16:14:28.966Z,1.96
2023-02-09T16:16:57.077Z,1.73
2023-02-09T16:19:25.388Z,1.59
2023-02-09T16:21:59.427Z,1.37
2023-02-09T16:24:27.615Z,0.36
2023-02-09T16:26:56.188Z,0.68
2023-02-09T16:29:26.126Z,0.97
2023-02-09T16:31:54.339Z,0.84
2023-02-09T16:34:22.870Z,0.78
2023-02-09T16:36:50.922Z,0.54
2023-02-09T16:39:20.564Z,0.52
2023-02-09T16:41:51.011Z,0.25
2023-02-09T16:44:33.670Z,0.13
2023-02-09T16:47:02.263Z,0.07
2023-02-09T16:49:36.071Z,-0.39
2023-02-09T16:52:07.568Z,-0.86
2023-02-09T16:54:44.624Z,-0.32
2023-02-09T16:57:15.237Z,-1.07
2023-02-09T16:59:43.574Z,-0.29
2023-02-09T17:02:27.175Z,-0.49
2023-02-09T17:04:55.740Z,-0.86
2023-02-09T17:07:30.132Z,-0.66
2023-02-09T17:10:00.072Z,-0.74
2023-02-09T17:12:28.431Z,-1.16
2023-02-09T17:14:56.460Z,-1.21
2023-02-09T17:17:24.967Z,-1.02
2023-02-09T17:19:53.748Z,-1.23
2023-02-09T17:22:21.830Z,-1.15
2023-02-09T17:24:50.234Z,-1.36
2023-02-09T17:27:18.294Z,-1.75
2023-02-09T17:29:46.241Z,-1.62
2023-02-09T17:32:15.960Z,-1.70
2023-02-09T17:34:43.983Z,-1.67
2023-02-09T17:37:14.807Z,-2.28
2023-02-09T17:39:43.385Z,-1.72
2023-02-09T17:42:22.709Z,-1.82
2023-02-09T17:44:51.643Z,-1.90
2023-02-09T17:47:20.794Z,-2.12
2023-02-09T17:49:48.923Z,-2.21
2023-02-09T17:52:18.536Z,-2.04
2023-02-09T17:54:46.900Z,-2.24
2023-02-09T17:57:16.565Z,-2.34
2023-02-09T17:59:46.275Z,-2.13
2023-02-09T18:02:16.706Z,-2.18
2023-02-09T18:04:45.063Z,-2.45
2023-02-09T18:07:14.745Z,-2.28
2023-02-09T18:09:42.689Z,-2.49
2023-02-09T18:12:27.122Z,-2.56
2023-02-09T18:14:55.279Z,-2.58
2023-02-09T18:17:23.677Z,-2.80
2023-02-09T18:19:51.874Z,-3.59
2023-02-09T18:22:20.281Z,-2.83
2023-02-09T18:24:49.102Z,-2.73
2023-02-09T18:27:19.340Z,-2.71
2023-02-09T18:29:47.312Z,-3.07
2023-02-09T18:32:16.820Z,-3.07
2023-02-09T18:34:44.851Z,-3.35
2023-02-09T18:37:15.909Z,-3.19
2023-02-09T18:39:46.871Z,-2.61
2023-02-09T18:42:16.226Z,-2.87
2023-02-09T18:44:44.549Z,-3.40
2023-02-09T18:47:12.610Z,-2.50
2023-02-09T18:49:40.655Z,-2.31
2023-02-09T18:52:10.479Z,-2.75
2023-02-09T18:54:38.427Z,-2.75
2023-02-09T18:57:06.371Z,-2.96
2023-02-09T18:59:34.785Z,-2.90
2023-02-09T19:02:02.992Z,-3.19
2023-02-09T19:04:31.179Z,-3.38
2023-02-09T19:06:59.521Z,-3.50
2023-02-09T19:09:27.475Z,-3.51
2023-02-09T19:11:55.488Z,-3.84
2023-02-09T19:14:39.172Z,-3.67
2023-02-09T19:17:09.706Z,-3.81
2023-02-09T19:19:39.023Z,-3.67
2023-02-09T19:22:07.243Z,-3.91
2023-02-09T19:24:35.430Z,-4.93
2023-02-09T19:27:06.938Z,-4.45
2023-02-09T19:29:35.527Z,-4.56
2023-02-09T19:32:05.512Z,-3.91
2023-02-09T19:34:37.109Z,-4.51
2023-02-09T19:37:07.021Z,-4.12
2023-02-09T19:39:38.330Z,-3.73
2023-02-09T19:42:06.751Z,-4.26
2023-02-09T19:44:35.329Z,-4.00
2023-02-09T19:47:03.327Z,-4.09
2023-02-09T19:49:34.211Z,-4.04
2023-02-09T19:52:02.343Z,-4.21
2023-02-09T19:54:30.407Z,-4.15
2023-02-09T19:56:59.966Z,-4.23
2023-02-09T19:59:27.898Z,-4.46
2023-02-09T20:01:55.983Z,-4.37
2023-02-09T20:04:24.432Z,-4.92
2023-02-09T20:06:52.476Z,-4.48
2023-02-09T20:09:20.457Z,-4.42
2023-02-09T20:14:17.662Z,-4.51
2023-02-09T20:16:45.580Z,-4.46
2023-02-09T20:19:13.901Z,-4.62
2023-02-09T20:21:43.066Z,-4.82
2023-02-09T20:24:12.709Z,-4.80
2023-02-09T20:26:41.954Z,-4.77
2023-02-09T20:29:11.387Z,-5.70
2023-02-09T20:31:41.531Z,-5.11
2023-02-09T20:34:12.772Z,-5.75
2023-02-09T20:36:41.997Z,-5.71
2023-02-09T20:39:13.546Z,-4.74
2023-02-09T20:42:05.238Z,-4.52
2023-02-09T20:44:52.962Z,-4.33
2023-02-09T20:47:20.944Z,-4.49
2023-02-09T20:49:49.542Z,-5.24
2023-02-09T20:52:17.570Z,-4.67
2023-02-09T20:54:45.569Z,-4.68
2023-02-09T20:57:13.964Z,-4.78
2023-02-09T20:59:41.970Z,-4.91
2023-02-09T21:02:12.733Z,-4.81
2023-02-09T21:04:41.186Z,-4.88
2023-02-09T21:07:09.208Z,-4.77
2023-02-09T21:09:38.318Z,-5.21
2023-02-09T21:12:06.678Z,-6.19
2023-02-09T21:14:42.146Z,-6.13
2023-02-09T21:17:11.868Z,-5.64
2023-02-09T21:19:40.508Z,-5.31
2023-02-09T21:22:08.782Z,-5.73
2023-02-09T21:24:39.211Z,-5.17
2023-02-09T21:27:08.182Z,-4.76
2023-02-09T21:29:36.828Z,-4.72
2023-02-09T21:32:06.780Z,-4.90
2023-02-09T21:34:34.867Z,-4.98
2023-02-09T21:37:03.295Z,-4.97
2023-02-09T21:39:32.720Z,-5.03
2023-02-09T21:42:23.913Z,-5.28
2023-02-09T21:44:54.299Z,-5.02
2023-02-09T21:47:29.870Z,-5.19
2023-02-09T21:49:58.648Z,-5.56
2023-02-09T21:52:27.297Z,-6.50
2023-02-09T21:54:55.293Z,-5.49
2023-02-09T21:57:24.054Z,-5.11
2023-02-09T21:59:52.239Z,-5.36
2023-02-09T22:02:20.546Z,-5.50
2023-02-09T22:04:51.427Z,-5.72
2023-02-09T22:07:20.595Z,-5.53
2023-02-09T22:09:50.076Z,-5.57
2023-02-09T22:12:18.451Z,-5.65
2023-02-09T22:14:46.660Z,-5.68
2023-02-09T22:17:14.927Z,-5.72
2023-02-09T22:19:43.062Z,-5.46
2023-02-09T22:22:11.264Z,-5.53
2023-02-09T22:24:39.557Z,-5.71
2023-02-09T22:27:07.632Z,-5.87
2023-02-09T22:29:35.551Z,-5.95
2023-02-09T22:32:03.826Z,-5.92
2023-02-09T22:34:31.773Z,-5.94
2023-02-09T22:36:59.725Z,-6.03
2023-02-09T22:39:28.035Z,-5.78
2023-02-09T22:41:58.930Z,-5.82
2023-02-09T22:44:28.299Z,-5.88
2023-02-09T22:46:56.646Z,-5.95
2023-02-09T22:49:24.556Z,-5.90
2023-02-09T22:51:52.877Z,-5.91
2023-02-09T22:54:21.292Z,-5.93
2023-02-09T22:56:49.302Z,-5.84
2023-02-09T22:59:17.550Z,-5.77
2023-02-09T23:01:45.828Z,-5.66
2023-02-09T23:04:14.014Z,-5.83
2023-02-09T23:06:42.390Z,-5.88
2023-02-09T23:09:11.933Z,-6.02
2023-02-09T23:11:40.073Z,-6.06
2023-02-09T23:14:10.505Z,-5.83
2023-02-09T23:16:40.475Z,-5.75
2023-02-09T23:19:13.140Z,-5.79
2023-02-09T23:21:43.667Z,-6.05
2023-02-09T23:24:13.064Z,-5.97
2023-02-09T23:26:41.226Z,-5.74
2023-02-09T23:29:12.143Z,-5.86
2023-02-09T23:31:40.712Z,-5.85
2023-02-09T23:34:08.767Z,-5.95
2023-02-09T23:36:36.681Z,-6.06
2023-02-09T23:39:06.520Z,-5.87
2023-02-09T23:41:35.203Z,-5.91
2023-02-09T23:44:03.722Z,-5.94
2023-02-09T23:46:32.056Z,-6.08
2023-02-09T23:49:00.134Z,-6.35
2023-02-09T23:51:34.279Z,-6.26
2023-02-09T23:54:05.360Z,-7.43
2023-02-09T23:56:37.360Z,-6.24
2023-02-09T23:59:08.724Z,-6.71
